createdAt,value
2023-01-22T00:01:03.938Z,6.17
2023-01-22T00:04:13.501Z,6.93
2023-01-22T00:07:18.552Z,8.30
2023-01-22T00:10:20.911Z,5.70
2023-01-22T00:13:24.915Z,5.77
2023-01-22T00:16:27.189Z,6.73
2023-01-22T00:19:29.141Z,6.37
2023-01-22T00:22:31.401Z,5.87
2023-01-22T00:25:33.711Z,6.07
2023-01-22T00:28:37.586Z,6.03
2023-01-22T00:31:39.685Z,5.97
2023-01-22T00:34:42.004Z,6.03
2023-01-22T00:37:46.423Z,6.17
2023-01-22T00:40:48.703Z,5.77
2023-01-22T00:43:52.835Z,6.53
2023-01-22T00:46:55.267Z,5.20
2023-01-22T00:49:57.415Z,6.47
2023-01-22T00:53:00.501Z,6.30
2023-01-22T00:56:03.044Z,6.63
2023-01-22T00:59:10.306Z,6.93
2023-01-22T01:02:12.337Z,6.90
2023-01-22T01:05:14.722Z,6.27
2023-01-22T01:08:16.668Z,5.60
2023-01-22T01:11:22.330Z,8.67
2023-01-22T01:14:24.653Z,6.77
2023-01-22T01:17:26.908Z,7.17
2023-01-22T01:20:28.902Z,6.70
2023-01-22T01:23:31.479Z,9.33
2023-01-22T01:26:35.291Z,7.07
2023-01-22T01:29:37.580Z,8.17
2023-01-22T01:32:39.723Z,9.33
2023-01-22T01:35:42.049Z,7.83
2023-01-22T01:38:44.778Z,11.07
2023-01-22T01:41:47.141Z,9.63
2023-01-22T01:45:21.177Z,9.50
2023-01-22T01:48:36.504Z,10.00
2023-01-22T01:51:38.507Z,10.57
2023-01-22T01:54:44.399Z,8.97
2023-01-22T01:57:46.572Z,7.93
2023-01-22T02:00:54.029Z,10.77
2023-01-22T02:03:56.123Z,11.13
2023-01-22T02:06:58.357Z,12.07
2023-01-22T02:10:00.666Z,12.73
2023-01-22T02:13:09.613Z,11.63
2023-01-22T02:16:11.958Z,15.40
2023-01-22T02:19:15.085Z,12.00
2023-01-22T02:22:22.973Z,12.13
2023-01-22T02:25:25.743Z,11.70
2023-01-22T02:28:27.764Z,10.40
2023-01-22T02:31:30.012Z,12.53
2023-01-22T02:34:32.017Z,13.90
2023-01-22T02:37:34.311Z,14.70
2023-01-22T02:40:36.360Z,14.20
2023-01-22T02:43:38.650Z,15.73
2023-01-22T02:46:40.678Z,13.43
2023-01-22T02:49:42.945Z,15.17
2023-01-22T02:52:44.959Z,16.30
2023-01-22T02:55:49.022Z,14.93
2023-01-22T02:58:51.484Z,17.97
2023-01-22T03:01:53.753Z,14.33
2023-01-22T03:05:03.277Z,15.87
2023-01-22T03:08:05.656Z,13.77
2023-01-22T03:11:07.688Z,12.77
2023-01-22T03:14:29.171Z,14.60
2023-01-22T03:17:49.597Z,14.83
2023-01-22T03:21:10.347Z,13.70
2023-01-22T03:24:12.361Z,14.70
2023-01-22T03:27:14.607Z,16.23
2023-01-22T03:30:17.080Z,16.23
2023-01-22T03:33:19.516Z,15.23
2023-01-22T03:36:21.478Z,15.80
2023-01-22T03:39:23.861Z,16.57
2023-01-22T03:42:25.887Z,16.50
2023-01-22T03:45:28.183Z,16.23
2023-01-22T03:48:30.451Z,16.13
2023-01-22T03:51:32.794Z,16.00
2023-01-22T03:54:34.742Z,13.97
2023-01-22T03:57:36.990Z,14.30
2023-01-22T04:00:38.972Z,14.97
2023-01-22T04:03:41.743Z,14.97
2023-01-22T04:06:43.721Z,16.97
2023-01-22T04:09:45.971Z,15.77
2023-01-22T04:12:47.977Z,14.07
2023-01-22T04:15:50.489Z,13.87
2023-01-22T04:18:52.784Z,12.07
2023-01-22T04:21:55.117Z,14.53
2023-01-22T04:24:57.197Z,13.60
2023-01-22T04:27:59.420Z,14.07
2023-01-22T04:31:01.525Z,15.17
2023-01-22T04:34:03.888Z,14.70
2023-01-22T04:37:05.834Z,13.17
2023-01-22T04:40:09.404Z,13.33
2023-01-22T04:43:11.652Z,12.63
2023-01-22T04:46:13.965Z,13.53
2023-01-22T04:49:15.961Z,14.57
2023-01-22T04:52:18.765Z,15.33
2023-01-22T04:55:21.513Z,11.70
2023-01-22T04:58:23.730Z,11.97
2023-01-22T05:01:25.946Z,16.00
2023-01-22T05:04:28.255Z,14.73
2023-01-22T05:07:30.276Z,12.80
2023-01-22T05:10:32.587Z,15.13
2023-01-22T05:13:34.635Z,14.53
2023-01-22T05:16:36.975Z,11.30
2023-01-22T05:19:38.918Z,13.37
2023-01-22T05:22:41.216Z,15.57
2023-01-22T05:25:49.186Z,13.37
2023-01-22T05:28:51.438Z,14.90
2023-01-22T05:31:54.439Z,12.27
2023-01-22T05:34:56.865Z,16.50
2023-01-22T05:37:58.869Z,14.60
2023-01-22T05:41:01.142Z,16.87
2023-01-22T05:44:04.877Z,14.43
2023-01-22T05:47:07.221Z,13.57
2023-01-22T05:50:10.042Z,12.10
2023-01-22T05:53:12.351Z,15.27
2023-01-22T05:56:14.420Z,14.23
2023-01-22T05:59:16.798Z,15.40
2023-01-22T06:02:18.728Z,28.07
2023-01-22T06:05:21.063Z,17.67
2023-01-22T06:08:23.101Z,14.53
2023-01-22T06:11:25.869Z,15.93
2023-01-22T06:14:27.837Z,13.80
2023-01-22T06:17:30.074Z,13.80
2023-01-22T06:20:32.065Z,12.33
2023-01-22T06:23:35.050Z,12.93
2023-01-22T06:26:37.271Z,13.53
2023-01-22T06:29:40.304Z,13.30
2023-01-22T06:32:42.299Z,15.57
2023-01-22T06:35:44.690Z,15.03
2023-01-22T06:38:46.673Z,13.50
2023-01-22T06:41:48.973Z,16.33
2023-01-22T06:44:51.641Z,13.63
2023-01-22T06:47:53.905Z,14.40
2023-01-22T06:51:00.306Z,15.43
2023-01-22T06:54:02.637Z,12.93
2023-01-22T06:57:05.585Z,14.80
2023-01-22T07:00:08.621Z,13.73
2023-01-22T07:03:17.066Z,15.17
2023-01-22T07:06:20.208Z,14.63
2023-01-22T07:09:22.691Z,12.80
2023-01-22T07:12:25.001Z,13.67
2023-01-22T07:15:28.034Z,16.43
2023-01-22T07:18:30.547Z,17.03
2023-01-22T07:21:32.484Z,16.33
2023-01-22T07:24:34.769Z,13.47
2023-01-22T07:27:38.431Z,15.03
2023-01-22T07:30:43.153Z,15.37
2023-01-22T07:33:45.156Z,13.40
2023-01-22T07:36:47.504Z,15.13
2023-01-22T07:39:49.516Z,16.90
2023-01-22T07:42:52.930Z,16.47
2023-01-22T07:45:54.984Z,16.77
2023-01-22T07:48:57.262Z,17.00
2023-01-22T07:51:59.269Z,49.50
2023-01-22T07:55:01.550Z,30.93
2023-01-22T07:58:06.026Z,55.90
2023-01-22T08:01:08.644Z,28.03
2023-01-22T08:04:10.644Z,40.53
2023-01-22T08:07:19.457Z,30.77
2023-01-22T08:10:21.617Z,18.93
2023-01-22T08:13:24.247Z,22.60
2023-01-22T08:16:29.217Z,25.97
2023-01-22T08:19:31.595Z,26.80
2023-01-22T08:22:33.734Z,17.53
2023-01-22T08:25:36.044Z,26.60
2023-01-22T08:28:38.805Z,23.40
2023-01-22T08:31:41.235Z,27.43
2023-01-22T08:34:43.250Z,27.90
2023-01-22T08:37:45.595Z,26.90
2023-01-22T08:40:52.192Z,26.03
2023-01-22T08:43:54.457Z,26.47
2023-01-22T08:46:57.545Z,22.17
2023-01-22T08:50:02.762Z,45.17
2023-01-22T08:53:04.837Z,22.53
2023-01-22T08:56:07.619Z,28.03
2023-01-22T08:59:09.671Z,30.80
2023-01-22T09:02:15.087Z,32.10
2023-01-22T09:05:17.394Z,35.93
2023-01-22T09:08:20.347Z,36.47
2023-01-22T09:11:22.360Z,32.10
2023-01-22T09:14:24.699Z,32.67
2023-01-22T09:17:28.077Z,51.60
2023-01-22T09:20:30.479Z,35.93
2023-01-22T09:23:32.703Z,34.37
2023-01-22T09:26:37.187Z,45.37
2023-01-22T09:29:39.239Z,39.70
2023-01-22T09:32:41.637Z,42.73
2023-01-22T09:35:43.647Z,55.30
2023-01-22T09:38:46.253Z,41.37
2023-01-22T09:41:54.470Z,46.23
2023-01-22T09:45:02.728Z,51.07
2023-01-22T09:48:11.163Z,29.93
2023-01-22T09:51:16.984Z,33.90
2023-01-22T09:54:19.193Z,45.40
2023-01-22T09:57:31.373Z,35.07
2023-01-22T10:00:44.259Z,35.53
2023-01-22T10:03:52.370Z,43.07
2023-01-22T10:06:57.182Z,34.23
2023-01-22T10:10:23.770Z,88.30
2023-01-22T10:13:30.260Z,35.73
2023-01-22T10:16:32.596Z,34.93
2023-01-22T10:19:43.791Z,30.63
2023-01-22T10:22:48.797Z,34.20
2023-01-22T10:25:59.288Z,30.87
2023-01-22T10:29:12.768Z,49.60
2023-01-22T10:32:28.828Z,41.77
2023-01-22T10:35:32.140Z,26.50
2023-01-22T10:38:34.161Z,28.27
2023-01-22T10:41:36.486Z,34.37
2023-01-22T10:44:38.620Z,50.83
2023-01-22T10:47:40.891Z,33.77
2023-01-22T10:50:45.153Z,23.73
2023-01-22T10:53:53.699Z,24.07
2023-01-22T10:57:35.509Z,24.60
2023-01-22T11:00:51.571Z,25.10
2023-01-22T11:03:54.153Z,20.77
2023-01-22T11:07:22.398Z,24.30
2023-01-22T11:10:44.477Z,21.20
2023-01-22T11:14:02.714Z,19.73
2023-01-22T11:17:26.815Z,40.10
2023-01-22T11:20:49.599Z,25.60
2023-01-22T11:24:09.964Z,26.90
2023-01-22T11:27:15.121Z,26.87
2023-01-22T11:30:54.832Z,29.30
2023-01-22T11:34:21.535Z,29.30
2023-01-22T11:37:46.266Z,24.20
2023-01-22T11:40:58.355Z,28.23
2023-01-22T11:44:29.591Z,34.20
2023-01-22T11:47:49.435Z,33.83
2023-01-22T11:51:21.479Z,30.63
2023-01-22T11:54:44.237Z,32.73
2023-01-22T11:58:06.779Z,47.30
2023-01-22T12:01:24.127Z,33.83
2023-01-22T12:04:32.144Z,29.83
2023-01-22T12:07:46.513Z,29.67
2023-01-22T12:11:16.687Z,29.80
2023-01-22T12:14:24.808Z,27.53
2023-01-22T12:17:32.894Z,30.70
2023-01-22T12:20:49.840Z,28.47
2023-01-22T12:24:02.609Z,29.93
2023-01-22T12:27:53.010Z,40.57
2023-01-22T12:31:11.933Z,33.43
2023-01-22T12:34:30.500Z,26.00
2023-01-22T12:37:46.389Z,36.43
2023-01-22T12:41:12.948Z,37.30
2023-01-22T12:44:52.247Z,35.23
2023-01-22T12:47:57.087Z,31.10
2023-01-22T12:50:59.187Z,50.40
2023-01-22T12:54:16.171Z,48.10
2023-01-22T12:57:25.070Z,53.40
2023-01-22T13:00:34.661Z,48.37
2023-01-22T13:03:38.863Z,48.00
2023-01-22T13:06:43.593Z,31.80
2023-01-22T13:09:46.008Z,35.93
2023-01-22T13:12:54.811Z,50.33
2023-01-22T13:16:05.367Z,46.10
2023-01-22T13:19:29.618Z,43.83
2023-01-22T13:22:33.466Z,83.80
2023-01-22T13:25:35.906Z,66.03
2023-01-22T13:28:39.978Z,41.80
2023-01-22T13:31:54.866Z,42.77
2023-01-22T13:35:07.084Z,37.73
2023-01-22T13:38:23.002Z,42.60
2023-01-22T13:41:38.763Z,43.93
2023-01-22T13:44:47.896Z,40.47
2023-01-22T13:47:53.971Z,42.03
2023-01-22T13:51:20.273Z,39.03
2023-01-22T13:54:35.066Z,44.83
2023-01-22T13:57:43.762Z,45.63
2023-01-22T14:00:52.476Z,45.77
2023-01-22T14:04:01.059Z,39.87
2023-01-22T14:07:05.254Z,41.73
2023-01-22T14:10:34.452Z,41.17
2023-01-22T14:13:44.413Z,40.10
2023-01-22T14:16:47.064Z,44.27
2023-01-22T14:19:49.202Z,45.33
2023-01-22T14:22:51.679Z,40.07
2023-01-22T14:25:55.081Z,38.93
2023-01-22T14:28:57.731Z,36.03
2023-01-22T14:31:59.780Z,39.10
2023-01-22T14:35:02.467Z,36.40
2023-01-22T14:38:04.629Z,66.67
2023-01-22T14:41:07.463Z,39.03
2023-01-22T14:44:10.844Z,40.33
2023-01-22T14:47:13.478Z,41.83
2023-01-22T14:50:16.272Z,37.53
2023-01-22T14:53:19.517Z,36.10
2023-01-22T14:56:21.636Z,38.20
2023-01-22T14:59:24.095Z,42.33
2023-01-22T15:02:26.160Z,34.50
2023-01-22T15:05:29.524Z,37.97
2023-01-22T15:08:31.656Z,37.43
2023-01-22T15:11:34.261Z,39.83
2023-01-22T15:14:36.539Z,38.10
2023-01-22T15:17:39.220Z,36.53
2023-01-22T15:20:41.519Z,36.20
2023-01-22T15:23:44.091Z,34.93
2023-01-22T15:26:46.507Z,36.33
2023-01-22T15:29:49.042Z,36.00
2023-01-22T15:32:51.166Z,38.53
2023-01-22T15:35:53.859Z,39.50
2023-01-22T15:38:56.043Z,33.47
2023-01-22T15:41:58.906Z,35.33
2023-01-22T15:45:01.234Z,31.53
2023-01-22T15:48:03.714Z,31.87
2023-01-22T15:51:11.542Z,31.10
2023-01-22T15:54:16.055Z,31.03
2023-01-22T15:57:18.127Z,31.83
2023-01-22T16:00:21.861Z,34.07
2023-01-22T16:03:23.918Z,28.77
2023-01-22T16:06:28.408Z,32.03
2023-01-22T16:09:30.530Z,30.77
2023-01-22T16:12:34.865Z,48.07
2023-01-22T16:15:36.973Z,32.60
2023-01-22T16:18:40.228Z,27.60
2023-01-22T16:21:45.033Z,30.43
2023-01-22T16:24:47.512Z,36.73
2023-01-22T16:27:49.762Z,27.20
2023-01-22T16:30:52.695Z,25.13
2023-01-22T16:34:07.990Z,27.53
2023-01-22T16:37:11.276Z,29.37
2023-01-22T16:40:13.984Z,25.43
2023-01-22T16:43:16.722Z,25.87
2023-01-22T16:46:23.341Z,27.37
2023-01-22T16:49:31.391Z,27.57
2023-01-22T16:52:34.174Z,25.77
2023-01-22T16:55:37.002Z,27.90
2023-01-22T16:58:39.285Z,26.97
2023-01-22T17:01:42.616Z,27.13
2023-01-22T17:04:45.251Z,27.33
2023-01-22T17:07:47.993Z,27.40
2023-01-22T17:10:50.684Z,25.07
2023-01-22T17:13:54.103Z,22.40
2023-01-22T17:16:57.160Z,26.93
2023-01-22T17:19:59.890Z,26.80
2023-01-22T17:23:02.244Z,25.50
2023-01-22T17:26:07.091Z,28.43
2023-01-22T17:29:09.740Z,24.63
2023-01-22T17:32:12.415Z,23.13
2023-01-22T17:35:14.979Z,26.80
2023-01-22T17:38:19.319Z,24.90
2023-01-22T17:41:23.657Z,25.23
2023-01-22T17:44:27.016Z,27.87
2023-01-22T17:47:29.411Z,22.33
2023-01-22T17:50:32.236Z,21.43
2023-01-22T17:53:39.482Z,20.67
2023-01-22T17:56:47.188Z,19.00
2023-01-22T17:59:49.491Z,19.70
2023-01-22T18:02:52.335Z,21.63
2023-01-22T18:05:54.775Z,21.00
2023-01-22T18:08:57.802Z,21.37
2023-01-22T18:12:00.449Z,20.70
2023-01-22T18:15:03.910Z,18.10
2023-01-22T18:18:06.122Z,19.20
2023-01-22T18:21:17.093Z,22.87
2023-01-22T18:24:23.002Z,23.27
2023-01-22T18:27:26.069Z,23.87
2023-01-22T18:30:28.464Z,23.60
2023-01-22T18:33:33.354Z,26.23
2023-01-22T18:36:37.847Z,21.70
2023-01-22T18:39:40.836Z,20.03
2023-01-22T18:42:43.101Z,23.37
2023-01-22T18:45:46.051Z,18.03
2023-01-22T18:48:56.331Z,20.60
2023-01-22T18:52:00.965Z,23.20
2023-01-22T18:55:03.572Z,19.33
2023-01-22T18:58:34.244Z,34.30
2023-01-22T19:01:38.259Z,22.67
2023-01-22T19:04:41.181Z,25.80
2023-01-22T19:07:43.466Z,20.93
2023-01-22T19:10:46.383Z,21.13
2023-01-22T19:13:49.345Z,20.70
2023-01-22T19:16:53.688Z,22.97
2023-01-22T19:19:56.135Z,23.50
2023-01-22T19:23:00.190Z,23.20
2023-01-22T19:26:13.031Z,24.43
2023-01-22T19:29:17.941Z,26.50
2023-01-22T19:32:27.523Z,24.10
2023-01-22T19:35:30.455Z,30.07
2023-01-22T19:38:32.979Z,26.57
2023-01-22T19:41:37.606Z,26.77
2023-01-22T19:44:40.071Z,25.00
2023-01-22T19:47:44.372Z,28.97
2023-01-22T19:50:46.709Z,25.67
2023-01-22T19:53:49.568Z,29.73
2023-01-22T19:56:52.035Z,22.47
2023-01-22T19:59:58.231Z,28.30
2023-01-22T20:03:05.953Z,35.67
2023-01-22T20:06:10.158Z,28.40
2023-01-22T20:09:13.312Z,32.33
2023-01-22T20:12:16.286Z,33.30
2023-01-22T20:15:19.282Z,31.27
2023-01-22T20:18:22.603Z,34.83
2023-01-22T20:21:27.090Z,29.30
2023-01-22T20:24:30.358Z,33.83
2023-01-22T20:27:33.333Z,33.43
2023-01-22T20:30:37.301Z,31.40
2023-01-22T20:33:39.709Z,27.27
2023-01-22T20:36:43.603Z,31.17
2023-01-22T20:39:47.076Z,35.70
2023-01-22T20:42:51.951Z,36.50
2023-01-22T20:46:16.312Z,31.83
2023-01-22T20:49:19.122Z,33.20
2023-01-22T20:52:21.384Z,36.93
2023-01-22T20:55:24.781Z,31.07
2023-01-22T20:58:27.971Z,34.87
2023-01-22T21:01:31.579Z,31.53
2023-01-22T21:04:33.846Z,31.00
2023-01-22T21:07:36.582Z,35.90
2023-01-22T21:10:38.923Z,29.30
2023-01-22T21:13:41.784Z,31.43
2023-01-22T21:16:44.690Z,28.83
2023-01-22T21:19:47.778Z,29.93
2023-01-22T21:22:50.311Z,30.33
2023-01-22T21:25:53.009Z,32.27
2023-01-22T21:28:58.359Z,31.27
2023-01-22T21:32:01.062Z,35.73
2023-01-22T21:35:03.554Z,31.93
2023-01-22T21:38:06.269Z,31.30
2023-01-22T21:41:12.461Z,33.60
2023-01-22T21:44:36.613Z,33.17
2023-01-22T21:47:38.904Z,33.77
2023-01-22T21:50:42.636Z,31.00
2023-01-22T21:53:45.101Z,31.03
2023-01-22T21:56:47.849Z,35.47
2023-01-22T21:59:51.497Z,34.33
2023-01-22T22:02:54.242Z,31.93
2023-01-22T22:06:02.039Z,33.63
2023-01-22T22:09:07.460Z,32.70
2023-01-22T22:12:10.437Z,32.23
2023-01-22T22:15:12.767Z,32.60
2023-01-22T22:18:14.756Z,32.23
2023-01-22T22:21:17.376Z,29.93
2023-01-22T22:24:20.431Z,38.10
2023-01-22T22:27:22.807Z,36.57
2023-01-22T22:30:25.680Z,36.83
2023-01-22T22:33:28.047Z,34.23
2023-01-22T22:36:31.580Z,37.03
2023-01-22T22:39:34.286Z,33.80
2023-01-22T22:42:36.684Z,34.50
2023-01-22T22:45:39.277Z,38.47
2023-01-22T22:48:42.111Z,40.17
2023-01-22T22:51:44.661Z,35.33
2023-01-22T22:54:47.192Z,34.73
2023-01-22T22:57:49.476Z,46.87
2023-01-22T23:00:51.478Z,41.80
2023-01-22T23:03:54.648Z,41.70
2023-01-22T23:06:56.716Z,46.20
2023-01-22T23:09:59.331Z,36.93
2023-01-22T23:13:02.524Z,36.47
2023-01-22T23:16:08.382Z,39.07
2023-01-22T23:19:16.236Z,37.93
2023-01-22T23:22:18.477Z,36.50
2023-01-22T23:25:20.465Z,37.90
2023-01-22T23:28:22.981Z,33.80
2023-01-22T23:31:26.871Z,35.73
2023-01-22T23:34:29.379Z,35.90
2023-01-22T23:37:31.375Z,33.40
2023-01-22T23:40:34.141Z,39.10
2023-01-22T23:43:36.264Z,34.33
2023-01-22T23:46:38.834Z,34.23
2023-01-22T23:49:41.025Z,29.03
2023-01-22T23:52:43.946Z,33.03
2023-01-22T23:55:46.535Z,30.13
2023-01-22T23:58:49.141Z,29.97
